createdAt,value
2017-07-12T00:00:56.090Z,0
2017-07-12T00:02:04.995Z,0
2017-07-12T00:03:13.853Z,0
2017-07-12T00:04:22.709Z,0
2017-07-12T00:05:31.563Z,0
2017-07-12T00:06:40.421Z,0
2017-07-12T00:07:49.429Z,0
2017-07-12T00:08:58.285Z,0
2017-07-12T00:10:07.139Z,0
2017-07-12T00:11:16.000Z,0
2017-07-12T00:12:24.853Z,0
2017-07-12T00:13:33.859Z,0
2017-07-12T00:14:42.716Z,0
2017-07-12T00:15:51.573Z,0
2017-07-12T00:17:00.430Z,0
2017-07-12T00:18:09.286Z,0
2017-07-12T00:19:18.443Z,0
2017-07-12T00:20:27.301Z,0
2017-07-12T00:21:36.154Z,0
2017-07-12T00:22:45.010Z,0
2017-07-12T00:23:53.865Z,0
2017-07-12T00:25:02.870Z,0
2017-07-12T00:26:11.726Z,0
2017-07-12T00:27:20.581Z,0
2017-07-12T00:28:29.437Z,0
2017-07-12T00:29:38.291Z,0
2017-07-12T00:30:47.245Z,0
2017-07-12T00:31:56.101Z,0
2017-07-12T00:33:04.957Z,0
2017-07-12T00:34:13.812Z,0
2017-07-12T00:35:22.671Z,0
2017-07-12T00:36:31.726Z,0
2017-07-12T00:37:40.583Z,0
2017-07-12T00:38:49.439Z,0
2017-07-12T00:39:58.295Z,0
2017-07-12T00:41:07.151Z,0
2017-07-12T00:42:16.155Z,0
2017-07-12T00:43:25.009Z,0
2017-07-12T00:44:33.866Z,0
2017-07-12T00:45:42.723Z,0
2017-07-12T00:46:51.579Z,0
2017-07-12T00:48:00.490Z,0
2017-07-12T00:49:09.341Z,0
2017-07-12T00:50:18.197Z,0
2017-07-12T00:51:27.052Z,0
2017-07-12T00:52:36.241Z,0
2017-07-12T00:53:45.296Z,0
2017-07-12T00:54:54.152Z,0
2017-07-12T00:56:03.339Z,0
2017-07-12T00:57:12.197Z,0
2017-07-12T00:58:21.052Z,0
2017-07-12T00:59:30.006Z,0
2017-07-12T01:00:38.914Z,0
2017-07-12T01:01:47.769Z,0
2017-07-12T01:02:56.625Z,0
2017-07-12T01:04:05.480Z,0
2017-07-12T01:05:14.637Z,0
2017-07-12T01:06:23.492Z,0
2017-07-12T01:07:32.351Z,0
2017-07-12T01:08:41.205Z,0
2017-07-12T01:09:50.060Z,0
2017-07-12T01:10:59.317Z,0
2017-07-12T01:12:08.502Z,0
2017-07-12T01:13:17.360Z,0
2017-07-12T01:14:26.217Z,0
2017-07-12T01:15:35.070Z,0
2017-07-12T01:16:43.927Z,0
2017-07-12T01:17:52.783Z,0
2017-07-12T01:19:01.637Z,0
2017-07-12T01:20:10.492Z,0
2017-07-12T01:21:19.346Z,0
2017-07-12T01:22:28.352Z,0
2017-07-12T01:23:37.206Z,0
2017-07-12T01:24:46.213Z,0
2017-07-12T01:25:55.068Z,0
2017-07-12T01:27:03.923Z,0
2017-07-12T01:28:13.079Z,0
2017-07-12T01:29:21.936Z,0
2017-07-12T01:30:30.791Z,0
2017-07-12T01:31:39.647Z,0
2017-07-12T01:32:48.502Z,0
2017-07-12T01:33:57.457Z,0
2017-07-12T01:35:06.311Z,0
2017-07-12T01:36:15.167Z,0
2017-07-12T01:37:24.025Z,0
2017-07-12T01:38:32.880Z,0
2017-07-12T01:39:41.731Z,0
2017-07-12T01:40:50.587Z,0
2017-07-12T01:41:59.444Z,0
2017-07-12T01:43:08.299Z,0
2017-07-12T01:44:17.490Z,0
2017-07-12T01:45:26.546Z,0
2017-07-12T01:46:35.399Z,0
2017-07-12T01:47:44.254Z,0
2017-07-12T01:48:53.111Z,0
2017-07-12T01:50:02.307Z,0
2017-07-12T01:51:11.566Z,0
2017-07-12T01:52:20.421Z,0
2017-07-12T01:53:29.276Z,0
2017-07-12T01:54:38.132Z,0
2017-07-12T01:55:46.986Z,0
2017-07-12T01:56:56.326Z,0
2017-07-12T01:58:05.183Z,0
2017-07-12T01:59:14.038Z,0
2017-07-12T02:00:22.892Z,0
2017-07-12T02:01:31.745Z,0
2017-07-12T02:02:40.758Z,0
2017-07-12T02:03:49.612Z,0
2017-07-12T02:04:58.467Z,0
2017-07-12T02:06:07.323Z,0
2017-07-12T02:07:16.178Z,0
2017-07-12T02:08:25.083Z,0
2017-07-12T02:09:33.936Z,0
2017-07-12T02:10:42.793Z,0
2017-07-12T02:11:51.649Z,0
2017-07-12T02:13:00.504Z,0
2017-07-12T02:14:09.511Z,0
2017-07-12T02:15:18.367Z,0
2017-07-12T02:16:27.223Z,0
2017-07-12T02:17:36.079Z,0
2017-07-12T02:18:44.935Z,0
2017-07-12T02:19:53.890Z,0
2017-07-12T02:21:02.744Z,0
2017-07-12T02:22:11.594Z,0
2017-07-12T02:23:20.447Z,0
2017-07-12T02:24:29.632Z,0
2017-07-12T02:25:38.589Z,0
2017-07-12T02:26:47.776Z,0
2017-07-12T02:27:56.633Z,0
2017-07-12T02:29:05.485Z,0
2017-07-12T02:30:14.341Z,0
2017-07-12T02:31:23.296Z,0
2017-07-12T02:32:32.148Z,0
2017-07-12T02:33:41.008Z,0
2017-07-12T02:34:50.250Z,0
2017-07-12T02:35:59.048Z,0
2017-07-12T02:37:08.054Z,0
2017-07-12T02:38:16.909Z,0
2017-07-12T02:39:25.765Z,0
2017-07-12T02:40:34.623Z,0
2017-07-12T02:41:43.478Z,0
2017-07-12T02:43:24.437Z,0
2017-07-12T02:44:33.292Z,0
2017-07-12T02:45:42.146Z,0
2017-07-12T02:46:51.005Z,0
2017-07-12T02:48:00.010Z,0
2017-07-12T02:49:08.865Z,0
2017-07-12T02:50:17.720Z,0
2017-07-12T02:51:26.576Z,0
2017-07-12T02:52:35.430Z,0
2017-07-12T02:53:44.688Z,4
2017-07-12T02:54:53.542Z,4
2017-07-12T02:56:02.395Z,4
2017-07-12T02:57:11.252Z,4
2017-07-12T02:58:20.107Z,4
2017-07-12T02:59:29.110Z,4
2017-07-12T03:00:37.963Z,8
2017-07-12T03:01:46.818Z,8
2017-07-12T03:02:55.673Z,4
2017-07-12T03:04:04.530Z,0
2017-07-12T03:05:13.384Z,4
2017-07-12T03:06:22.237Z,4
2017-07-12T03:07:31.092Z,4
2017-07-12T03:08:39.949Z,4
2017-07-12T03:09:48.804Z,8
2017-07-12T03:10:57.708Z,8
2017-07-12T03:12:06.567Z,8
2017-07-12T03:13:15.421Z,8
2017-07-12T03:14:24.278Z,8
2017-07-12T03:15:33.133Z,4
2017-07-12T03:16:42.140Z,8
2017-07-12T03:17:50.995Z,12
2017-07-12T03:18:59.852Z,12
2017-07-12T03:20:08.707Z,12
2017-07-12T03:21:17.562Z,12
2017-07-12T03:22:26.816Z,12
2017-07-12T03:23:35.670Z,12
2017-07-12T03:24:44.526Z,12
2017-07-12T03:25:53.384Z,12
2017-07-12T03:27:02.235Z,12
2017-07-12T03:28:11.090Z,16
2017-07-12T03:29:19.946Z,20
2017-07-12T03:30:28.803Z,20
2017-07-12T03:31:37.660Z,20
2017-07-12T03:32:46.522Z,20
2017-07-12T03:33:55.862Z,20
2017-07-12T03:35:04.717Z,20
2017-07-12T03:36:13.574Z,20
2017-07-12T03:37:22.812Z,20
2017-07-12T03:38:31.669Z,24
2017-07-12T03:39:40.675Z,28
2017-07-12T03:40:49.530Z,28
2017-07-12T03:41:58.387Z,28
2017-07-12T03:43:07.243Z,28
2017-07-12T03:44:16.097Z,32
2017-07-12T03:45:25.002Z,32
2017-07-12T03:46:33.857Z,40
2017-07-12T03:47:42.713Z,40
2017-07-12T03:48:51.914Z,44
2017-07-12T03:50:00.769Z,48
2017-07-12T03:51:09.974Z,48
2017-07-12T03:52:18.829Z,48
2017-07-12T03:53:27.684Z,52
2017-07-12T03:54:36.536Z,60
2017-07-12T03:55:45.391Z,56
2017-07-12T03:56:54.349Z,56
2017-07-12T03:58:03.204Z,56
2017-07-12T03:59:12.060Z,56
2017-07-12T04:00:20.918Z,56
2017-07-12T04:01:29.772Z,52
2017-07-12T04:02:38.777Z,52
2017-07-12T04:03:47.632Z,52
2017-07-12T04:04:56.489Z,60
2017-07-12T04:06:05.344Z,60
2017-07-12T04:07:14.200Z,64
2017-07-12T04:08:23.153Z,72
2017-07-12T04:09:32.008Z,84
2017-07-12T04:10:40.865Z,88
2017-07-12T04:11:49.720Z,104
2017-07-12T04:12:58.574Z,120
2017-07-12T04:14:07.431Z,140
2017-07-12T04:15:16.286Z,168
2017-07-12T04:16:25.140Z,192
2017-07-12T04:17:33.995Z,224
2017-07-12T04:18:42.849Z,260
2017-07-12T04:19:52.105Z,292
2017-07-12T04:21:00.959Z,320
2017-07-12T04:22:09.815Z,336
2017-07-12T04:23:18.671Z,356
2017-07-12T04:24:27.527Z,372
2017-07-12T04:25:36.533Z,372
2017-07-12T04:26:45.387Z,376
2017-07-12T04:27:54.574Z,376
2017-07-12T04:29:03.427Z,376
2017-07-12T04:30:12.287Z,388
2017-07-12T04:31:21.286Z,412
2017-07-12T04:32:30.143Z,440
2017-07-12T04:33:38.996Z,448
2017-07-12T04:34:47.851Z,420
2017-07-12T04:35:56.708Z,392
2017-07-12T04:37:05.611Z,364
2017-07-12T04:38:14.467Z,348
2017-07-12T04:39:23.321Z,340
2017-07-12T04:40:32.175Z,344
2017-07-12T04:41:41.031Z,364
2017-07-12T04:42:50.138Z,400
2017-07-12T04:43:58.992Z,440
2017-07-12T04:45:08.187Z,484
2017-07-12T04:46:17.042Z,516
2017-07-12T04:47:25.896Z,520
2017-07-12T04:48:34.805Z,524
2017-07-12T04:49:43.663Z,552
2017-07-12T04:50:52.519Z,600
2017-07-12T04:52:01.708Z,648
2017-07-12T04:53:10.563Z,688
2017-07-12T04:54:19.819Z,680
2017-07-12T04:55:28.672Z,616
2017-07-12T04:56:37.527Z,544
2017-07-12T04:57:46.381Z,484
2017-07-12T04:58:55.235Z,464
2017-07-12T05:00:04.725Z,468
2017-07-12T05:01:13.584Z,476
2017-07-12T05:02:22.439Z,460
2017-07-12T05:03:31.293Z,500
2017-07-12T05:04:40.149Z,556
2017-07-12T05:05:49.055Z,624
2017-07-12T05:06:57.911Z,732
2017-07-12T05:08:06.766Z,804
2017-07-12T05:09:15.621Z,888
2017-07-12T05:10:24.475Z,872
2017-07-12T05:11:33.632Z,792
2017-07-12T05:12:42.491Z,724
2017-07-12T05:13:51.345Z,728
2017-07-12T05:15:00.201Z,792
2017-07-12T05:16:09.060Z,884
2017-07-12T05:17:18.014Z,1012
2017-07-12T05:18:26.866Z,1184
2017-07-12T05:19:35.722Z,1224
2017-07-12T05:20:44.579Z,1240
2017-07-12T05:21:53.436Z,1152
2017-07-12T05:23:02.440Z,1116
2017-07-12T05:24:11.294Z,1148
2017-07-12T05:25:20.151Z,1136
2017-07-12T05:26:29.007Z,1152
2017-07-12T05:27:37.861Z,1164
2017-07-12T05:28:46.770Z,1168
2017-07-12T05:29:55.955Z,1176
2017-07-12T05:31:04.811Z,1188
2017-07-12T05:32:13.667Z,1424
2017-07-12T05:33:22.861Z,1512
2017-07-12T05:34:32.199Z,1500
2017-07-12T05:35:41.056Z,1432
2017-07-12T05:36:49.916Z,1548
2017-07-12T05:37:59.106Z,1604
2017-07-12T05:39:07.959Z,1616
2017-07-12T05:40:16.915Z,1608
2017-07-12T05:41:25.770Z,1520
2017-07-12T05:42:34.625Z,1368
2017-07-12T05:43:43.476Z,1264
2017-07-12T05:44:52.333Z,1236
2017-07-12T05:46:01.241Z,1192
2017-07-12T05:47:10.098Z,1268
2017-07-12T05:48:18.954Z,1360
2017-07-12T05:49:27.811Z,1424
2017-07-12T05:50:36.665Z,1456
2017-07-12T05:51:45.571Z,1520
2017-07-12T05:52:54.430Z,1648
2017-07-12T05:54:03.284Z,1788
2017-07-12T05:55:12.143Z,2128
2017-07-12T05:56:21.001Z,2376
2017-07-12T05:57:30.007Z,2416
2017-07-12T05:58:38.863Z,2332
2017-07-12T05:59:47.719Z,2336
2017-07-12T06:00:56.577Z,1912
2017-07-12T06:02:05.434Z,1656
2017-07-12T06:03:14.441Z,1792
2017-07-12T06:04:23.298Z,1852
2017-07-12T06:05:32.156Z,1892
2017-07-12T06:06:41.020Z,1852
2017-07-12T06:07:49.871Z,1716
2017-07-12T06:08:58.778Z,1772
2017-07-12T06:10:07.631Z,1672
2017-07-12T06:11:16.487Z,1548
2017-07-12T06:12:25.344Z,1464
2017-07-12T06:13:34.199Z,1284
2017-07-12T06:14:43.206Z,1192
2017-07-12T06:15:52.061Z,1272
2017-07-12T06:17:00.918Z,1396
2017-07-12T06:18:09.771Z,1328
2017-07-12T06:19:18.630Z,1664
2017-07-12T06:20:27.923Z,1716
2017-07-12T06:21:36.775Z,1692
2017-07-12T06:22:45.631Z,1768
2017-07-12T06:23:54.485Z,1680
2017-07-12T06:25:03.341Z,1624
2017-07-12T06:26:12.397Z,1576
2017-07-12T06:27:21.592Z,1600
2017-07-12T06:28:30.449Z,1676
2017-07-12T06:29:39.305Z,1772
2017-07-12T06:30:48.161Z,1852
2017-07-12T06:31:57.168Z,1872
2017-07-12T06:33:06.024Z,1848
2017-07-12T06:34:14.880Z,1844
2017-07-12T06:35:23.738Z,1924
2017-07-12T06:36:32.596Z,2044
2017-07-12T06:37:41.605Z,2180
2017-07-12T06:38:50.497Z,2276
2017-07-12T06:39:59.330Z,2272
2017-07-12T06:41:08.523Z,2272
2017-07-12T06:42:17.381Z,2256
2017-07-12T06:43:26.387Z,2204
2017-07-12T06:44:35.245Z,2124
2017-07-12T06:45:44.109Z,2052
2017-07-12T06:46:52.958Z,1996
2017-07-12T06:48:01.811Z,1968
2017-07-12T06:49:11.250Z,1920
2017-07-12T06:50:20.111Z,1900
2017-07-12T06:51:28.992Z,1872
2017-07-12T06:52:37.861Z,1912
2017-07-12T06:53:46.734Z,2076
2017-07-12T06:54:55.803Z,2200
2017-07-12T06:56:04.718Z,2300
2017-07-12T06:57:13.633Z,2372
2017-07-12T06:58:22.510Z,2424
2017-07-12T06:59:31.366Z,2472
2017-07-12T07:00:40.334Z,2492
2017-07-12T07:01:49.194Z,2536
2017-07-12T07:02:58.082Z,2616
2017-07-12T07:04:06.938Z,2676
2017-07-12T07:05:15.796Z,2684
2017-07-12T07:06:25.075Z,2676
2017-07-12T07:07:34.364Z,2572
2017-07-12T07:08:43.400Z,2384
2017-07-12T07:09:52.316Z,2172
2017-07-12T07:11:01.182Z,2068
2017-07-12T07:12:10.211Z,1980
2017-07-12T07:13:19.100Z,1888
2017-07-12T07:14:27.969Z,1696
2017-07-12T07:15:36.839Z,1680
2017-07-12T07:16:45.805Z,1892
2017-07-12T07:17:54.885Z,2036
2017-07-12T07:19:03.752Z,2092
2017-07-12T07:20:12.639Z,2064
2017-07-12T07:21:21.523Z,1892
2017-07-12T07:22:30.397Z,1640
2017-07-12T07:23:39.373Z,1560
2017-07-12T07:24:48.385Z,1664
2017-07-12T07:25:57.274Z,1588
2017-07-12T07:27:06.201Z,1476
2017-07-12T07:28:15.102Z,1368
2017-07-12T07:29:24.197Z,1344
2017-07-12T07:30:33.105Z,1444
2017-07-12T07:31:42.379Z,1600
2017-07-12T07:32:51.381Z,1744
2017-07-12T07:34:00.252Z,1732
2017-07-12T07:35:09.211Z,1704
2017-07-12T07:36:18.100Z,1924
2017-07-12T07:37:26.963Z,2248
2017-07-12T07:38:35.885Z,2352
2017-07-12T07:39:44.816Z,2452
2017-07-12T07:40:53.833Z,2736
2017-07-12T07:42:02.713Z,2852
2017-07-12T07:43:11.974Z,2852
2017-07-12T07:44:21.260Z,2756
2017-07-12T07:45:30.194Z,2700
2017-07-12T07:46:39.350Z,2580
2017-07-12T07:47:48.247Z,2476
2017-07-12T07:48:57.175Z,2024
2017-07-12T07:50:06.078Z,1852
2017-07-12T07:51:15.044Z,1908
2017-07-12T07:52:24.002Z,2000
2017-07-12T07:53:32.915Z,2112
2017-07-12T07:54:41.823Z,2164
2017-07-12T07:55:50.734Z,2580
2017-07-12T07:56:59.628Z,2844
2017-07-12T07:58:08.584Z,3004
2017-07-12T07:59:17.454Z,3052
2017-07-12T08:00:26.342Z,3272
2017-07-12T08:01:35.286Z,3728
2017-07-12T08:02:44.194Z,4140
2017-07-12T08:03:53.256Z,3956
2017-07-12T08:05:02.165Z,4476
2017-07-12T08:06:11.184Z,4412
2017-07-12T08:07:20.081Z,4120
2017-07-12T08:08:29.183Z,4184
2017-07-12T08:09:38.207Z,4952
2017-07-12T08:10:47.124Z,5700
2017-07-12T08:11:56.216Z,5404
2017-07-12T08:13:05.231Z,6140
2017-07-12T08:14:14.119Z,6260
2017-07-12T08:15:23.297Z,5972
2017-07-12T08:16:32.198Z,4840
2017-07-12T08:17:41.133Z,4856
2017-07-12T08:18:50.060Z,5712
2017-07-12T08:19:59.043Z,4672
2017-07-12T08:21:08.041Z,4136
2017-07-12T08:22:17.004Z,3400
2017-07-12T08:23:25.936Z,3104
2017-07-12T08:24:34.807Z,4396
2017-07-12T08:25:43.683Z,4696
2017-07-12T08:26:52.755Z,4984
2017-07-12T08:28:02.082Z,3472
2017-07-12T08:29:11.067Z,2192
2017-07-12T08:30:19.977Z,1400
2017-07-12T08:31:28.966Z,1124
2017-07-12T08:32:38.208Z,1892
2017-07-12T08:33:47.113Z,2684
2017-07-12T08:34:55.995Z,3276
2017-07-12T08:36:04.912Z,2956
2017-07-12T08:37:14.184Z,2152
2017-07-12T08:38:23.797Z,1600
2017-07-12T08:39:33.047Z,1680
2017-07-12T08:40:41.939Z,2116
2017-07-12T08:41:50.870Z,2228
2017-07-12T08:42:59.738Z,1796
2017-07-12T08:44:08.778Z,1600
2017-07-12T08:45:17.689Z,1368
2017-07-12T08:46:26.587Z,1276
2017-07-12T08:47:35.501Z,1076
2017-07-12T08:48:44.398Z,1136
2017-07-12T08:49:53.306Z,1312
2017-07-12T08:51:02.162Z,2020
2017-07-12T08:52:11.021Z,2064
2017-07-12T08:53:19.876Z,2092
2017-07-12T08:54:28.734Z,2312
2017-07-12T08:55:37.841Z,2996
2017-07-12T08:56:46.697Z,3300
2017-07-12T08:57:55.558Z,3344
2017-07-12T08:59:04.475Z,3420
2017-07-12T09:00:13.275Z,3440
2017-07-12T09:01:22.533Z,3468
2017-07-12T09:02:31.395Z,3380
2017-07-12T09:03:40.526Z,3516
2017-07-12T09:04:49.524Z,3564
2017-07-12T09:05:58.387Z,3616
2017-07-12T09:07:07.296Z,3680
2017-07-12T09:08:16.159Z,3584
2017-07-12T09:09:25.048Z,3264
2017-07-12T09:10:33.909Z,3164
2017-07-12T09:11:42.775Z,3112
2017-07-12T09:12:51.798Z,3052
2017-07-12T09:14:00.682Z,3448
2017-07-12T09:15:09.621Z,3568
2017-07-12T09:16:18.496Z,3656
2017-07-12T09:17:27.363Z,3624
2017-07-12T09:18:36.604Z,3588
2017-07-12T09:19:45.476Z,3356
2017-07-12T09:20:54.361Z,3312
2017-07-12T09:22:03.217Z,3420
2017-07-12T09:23:12.076Z,3392
2017-07-12T09:33:33.056Z,2700
2017-07-12T09:34:41.914Z,2544
2017-07-12T09:35:50.998Z,2432
2017-07-12T09:36:59.873Z,2272
2017-07-12T09:38:08.738Z,2352
2017-07-12T09:39:17.646Z,2912
2017-07-12T09:40:26.506Z,3076
2017-07-12T09:41:35.415Z,3124
2017-07-12T09:42:44.270Z,3004
2017-07-12T09:43:53.126Z,3260
2017-07-12T09:45:01.984Z,3332
2017-07-12T09:46:10.842Z,3368
2017-07-12T09:47:19.756Z,3384
2017-07-12T09:48:28.615Z,3320
2017-07-12T09:49:37.480Z,3204
2017-07-12T09:50:46.342Z,3196
2017-07-12T09:51:55.208Z,3096
2017-07-12T09:53:04.168Z,3116
2017-07-12T09:54:13.031Z,3012
2017-07-12T09:55:21.892Z,2872
2017-07-12T09:56:30.752Z,2800
2017-07-12T09:57:39.614Z,2760
2017-07-12T09:58:48.670Z,2536
2017-07-12T09:59:57.528Z,2572
2017-07-12T10:01:06.395Z,2720
2017-07-12T10:02:15.588Z,2764
2017-07-12T10:03:24.450Z,2864
2017-07-12T10:04:33.381Z,2824
2017-07-12T10:05:42.241Z,2836
2017-07-12T10:06:51.099Z,2784
2017-07-12T10:07:59.957Z,2780
2017-07-12T10:09:08.833Z,3180
2017-07-12T10:10:17.943Z,3240
2017-07-12T10:11:26.804Z,3356
2017-07-12T10:12:35.665Z,3548
2017-07-12T10:13:44.523Z,3644
2017-07-12T10:14:53.387Z,3716
2017-07-12T10:16:02.346Z,3904
2017-07-12T10:17:11.205Z,4072
2017-07-12T10:18:20.080Z,4052
2017-07-12T10:19:28.941Z,3928
2017-07-12T10:20:37.796Z,4236
2017-07-12T10:21:46.803Z,4356
2017-07-12T10:22:55.660Z,4304
2017-07-12T10:24:04.518Z,4140
2017-07-12T10:25:13.478Z,4144
2017-07-12T10:26:22.563Z,4220
2017-07-12T10:27:31.585Z,4344
2017-07-12T10:28:40.453Z,4396
2017-07-12T10:29:49.336Z,4340
2017-07-12T10:30:58.205Z,4392
2017-07-12T10:32:07.067Z,4424
2017-07-12T10:33:16.191Z,4448
2017-07-12T10:34:25.038Z,4396
2017-07-12T10:35:33.896Z,4312
2017-07-12T10:36:43.097Z,4148
2017-07-12T10:37:51.953Z,3716
2017-07-12T10:39:00.962Z,4008
2017-07-12T10:40:09.838Z,4072
2017-07-12T10:41:18.699Z,3884
2017-07-12T10:42:27.556Z,4108
2017-07-12T10:43:36.452Z,3744
2017-07-12T10:44:45.404Z,3968
2017-07-12T10:45:54.261Z,3540
2017-07-12T10:47:03.140Z,3404
2017-07-12T10:48:11.999Z,3600
2017-07-12T10:49:20.859Z,3988
2017-07-12T10:50:29.816Z,5316
2017-07-12T10:51:38.672Z,5672
2017-07-12T10:52:47.531Z,5616
2017-07-12T10:53:56.404Z,4864
2017-07-12T10:55:05.257Z,4484
2017-07-12T10:56:14.187Z,5196
2017-07-12T10:57:23.061Z,5164
2017-07-12T10:58:32.255Z,5212
2017-07-12T10:59:41.122Z,5448
2017-07-12T11:00:49.988Z,4720
2017-07-12T11:01:59.004Z,4508
2017-07-12T11:03:07.868Z,4132
2017-07-12T11:04:16.726Z,4060
2017-07-12T11:05:25.581Z,4500
2017-07-12T11:06:34.439Z,4704
2017-07-12T11:07:43.519Z,5064
2017-07-12T11:08:52.692Z,5056
2017-07-12T11:10:01.548Z,4488
2017-07-12T11:11:10.406Z,3952
2017-07-12T11:12:19.262Z,4772
2017-07-12T11:13:28.421Z,5864
2017-07-12T11:14:37.298Z,6268
2017-07-12T11:15:46.202Z,6244
2017-07-12T11:16:55.062Z,6192
2017-07-12T11:18:03.922Z,6152
2017-07-12T11:19:13.214Z,5936
2017-07-12T11:20:22.070Z,5460
2017-07-12T11:21:30.927Z,5396
2017-07-12T11:22:39.781Z,5408
2017-07-12T11:23:48.639Z,4920
2017-07-12T11:24:57.705Z,4672
2017-07-12T11:26:06.562Z,4864
2017-07-12T11:27:15.420Z,5268
2017-07-12T11:28:24.275Z,5448
2017-07-12T11:29:33.136Z,5248
2017-07-12T11:30:42.045Z,4660
2017-07-12T11:31:50.924Z,4688
2017-07-12T11:32:59.782Z,3752
2017-07-12T11:34:08.646Z,3336
2017-07-12T11:35:17.504Z,2912
2017-07-12T11:36:26.378Z,1656
2017-07-12T11:37:35.234Z,1220
2017-07-12T11:38:44.093Z,1816
2017-07-12T11:39:52.948Z,2256
2017-07-12T11:41:01.812Z,2364
2017-07-12T11:42:10.771Z,2856
2017-07-12T11:43:19.628Z,3540
2017-07-12T11:44:28.823Z,4008
2017-07-12T11:45:37.685Z,4264
2017-07-12T11:46:46.559Z,4240
2017-07-12T11:47:55.993Z,4344
2017-07-12T11:49:04.884Z,4132
2017-07-12T11:50:13.741Z,3484
2017-07-12T11:51:22.596Z,3716
2017-07-12T11:52:31.461Z,3116
2017-07-12T11:53:40.320Z,2388
2017-07-12T11:54:49.197Z,1972
2017-07-12T11:55:58.404Z,1360
2017-07-12T11:57:07.593Z,872
2017-07-12T11:58:16.455Z,712
2017-07-12T11:59:25.545Z,520
2017-07-12T12:00:34.443Z,564
2017-07-12T12:01:43.300Z,728
2017-07-12T12:02:52.156Z,872
2017-07-12T12:04:01.014Z,1252
2017-07-12T12:05:09.972Z,1668
2017-07-12T12:06:18.827Z,2412
2017-07-12T12:07:27.710Z,2816
2017-07-12T12:08:36.571Z,3496
2017-07-12T12:09:45.426Z,3136
2017-07-12T12:10:54.335Z,4228
2017-07-12T12:12:03.200Z,5468
2017-07-12T12:13:12.063Z,5292
2017-07-12T12:14:20.920Z,5524
2017-07-12T12:15:29.782Z,5824
2017-07-12T12:16:39.022Z,5860
2017-07-12T12:17:47.878Z,5940
2017-07-12T12:18:56.737Z,5648
2017-07-12T12:20:05.589Z,5892
2017-07-12T12:21:14.459Z,5928
2017-07-12T12:22:23.570Z,5872
2017-07-12T12:23:32.501Z,5704
2017-07-12T12:24:41.398Z,5824
2017-07-12T12:25:50.253Z,5680
2017-07-12T12:26:59.113Z,5788
2017-07-12T12:28:08.148Z,5624
2017-07-12T12:29:17.031Z,6156
2017-07-12T12:30:25.901Z,5468
2017-07-12T12:31:34.786Z,5980
2017-07-12T12:32:43.700Z,5392
2017-07-12T12:33:52.814Z,6628
2017-07-12T12:35:01.671Z,6264
2017-07-12T12:36:10.559Z,6368
2017-07-12T12:37:19.429Z,5324
2017-07-12T12:38:28.288Z,5524
2017-07-12T12:39:37.445Z,6592
2017-07-12T12:40:46.315Z,6260
2017-07-12T12:41:55.173Z,5392
2017-07-12T12:43:04.028Z,2932
2017-07-12T12:44:12.887Z,2340
2017-07-12T12:45:21.803Z,1476
2017-07-12T12:46:30.673Z,1288
2017-07-12T12:47:39.547Z,1204
2017-07-12T12:48:48.406Z,1372
2017-07-12T12:49:57.265Z,1512
2017-07-12T12:51:06.337Z,2464
2017-07-12T12:52:15.196Z,3260
2017-07-12T12:53:24.052Z,4392
2017-07-12T12:54:32.909Z,6252
2017-07-12T12:55:41.767Z,6876
2017-07-12T12:56:51.031Z,7152
2017-07-12T12:57:59.783Z,7128
2017-07-12T12:59:08.642Z,7576
2017-07-12T13:00:17.502Z,6528
2017-07-12T13:01:26.357Z,6208
2017-07-12T13:02:35.315Z,7152
2017-07-12T13:03:44.169Z,7548
2017-07-12T13:04:53.029Z,7544
2017-07-12T13:06:01.883Z,7648
2017-07-12T13:07:10.742Z,8140
2017-07-12T13:08:19.649Z,8656
2017-07-12T13:09:28.508Z,8892
2017-07-12T13:10:37.365Z,8916
2017-07-12T13:11:46.221Z,9016
2017-07-12T13:12:55.080Z,9524
2017-07-12T13:14:04.037Z,9112
2017-07-12T13:15:12.895Z,10296
2017-07-12T13:16:21.752Z,10352
2017-07-12T13:17:30.608Z,11660
2017-07-12T13:18:39.469Z,11624
2017-07-12T13:19:48.325Z,8368
2017-07-12T13:20:57.184Z,11664
2017-07-12T13:22:06.044Z,10700
2017-07-12T13:23:14.902Z,8640
2017-07-12T13:24:23.762Z,6372
2017-07-12T13:25:32.718Z,5772
2017-07-12T13:26:41.578Z,3912
2017-07-12T13:27:50.434Z,2728
2017-07-12T13:28:59.293Z,2064
2017-07-12T13:30:08.151Z,1664
2017-07-12T13:31:17.059Z,3068
2017-07-12T13:32:25.915Z,5356
2017-07-12T13:33:34.774Z,7040
2017-07-12T13:34:43.633Z,6736
2017-07-12T13:35:52.490Z,5728
2017-07-12T13:37:01.500Z,7736
2017-07-12T13:38:10.356Z,7672
2017-07-12T13:39:19.216Z,7944
2017-07-12T13:40:28.073Z,8596
2017-07-12T13:41:36.951Z,8076
2017-07-12T13:42:46.391Z,6724
2017-07-12T13:43:55.248Z,6860
2017-07-12T13:45:04.109Z,9408
2017-07-12T13:46:12.977Z,8928
2017-07-12T13:47:21.837Z,8728
2017-07-12T13:48:31.327Z,8576
2017-07-12T13:49:40.255Z,6528
2017-07-12T13:50:49.119Z,7124
2017-07-12T13:51:58.018Z,7068
2017-07-12T13:53:06.940Z,7132
2017-07-12T13:54:15.951Z,7072
2017-07-12T13:55:24.813Z,6132
2017-07-12T13:56:33.673Z,6052
2017-07-12T13:57:42.532Z,6500
2017-07-12T13:58:51.410Z,6152
2017-07-12T14:00:00.418Z,6636
2017-07-12T14:01:09.283Z,6352
2017-07-12T14:02:18.145Z,6268
2017-07-12T14:03:27.010Z,5344
2017-07-12T14:04:35.872Z,5656
2017-07-12T14:05:44.785Z,4788
2017-07-12T14:06:53.644Z,3364
2017-07-12T14:08:02.529Z,2348
2017-07-12T14:09:11.414Z,1716
2017-07-12T14:10:20.321Z,1288
2017-07-12T14:11:29.294Z,1064
2017-07-12T14:12:38.161Z,1592
2017-07-12T14:13:47.033Z,1932
2017-07-12T14:14:55.899Z,1628
2017-07-12T14:16:04.760Z,1508
2017-07-12T14:17:13.687Z,1400
2017-07-12T14:18:22.611Z,1484
2017-07-12T14:19:31.832Z,1832
2017-07-12T14:20:40.696Z,2688
2017-07-12T14:21:49.580Z,3640
2017-07-12T14:22:58.499Z,4328
2017-07-12T14:24:07.370Z,4684
2017-07-12T14:25:16.239Z,5300
2017-07-12T14:26:25.107Z,5160
2017-07-12T14:27:33.974Z,3816
2017-07-12T14:28:42.837Z,2620
2017-07-12T14:29:51.732Z,2748
2017-07-12T14:31:00.622Z,3440
2017-07-12T14:32:09.475Z,5200
2017-07-12T14:33:18.537Z,3936
2017-07-12T14:34:27.564Z,4712
2017-07-12T14:35:36.522Z,2688
2017-07-12T14:36:45.431Z,1860
2017-07-12T14:37:54.322Z,2028
2017-07-12T14:39:03.597Z,2208
2017-07-12T14:40:12.637Z,2604
2017-07-12T14:41:21.517Z,3628
2017-07-12T14:42:30.446Z,1664
2017-07-12T14:43:39.328Z,1328
2017-07-12T14:44:48.191Z,1148
2017-07-12T14:45:57.105Z,1096
2017-07-12T14:47:05.968Z,996
2017-07-12T14:48:14.837Z,1140
2017-07-12T14:49:23.698Z,1444
2017-07-12T14:50:32.559Z,1544
2017-07-12T14:51:41.613Z,2492
2017-07-12T14:52:50.476Z,2600
2017-07-12T14:53:59.332Z,1660
2017-07-12T14:55:08.536Z,1716
2017-07-12T14:56:17.395Z,1284
2017-07-12T14:57:26.362Z,1380
2017-07-12T14:58:35.210Z,1344
2017-07-12T14:59:44.074Z,1472
2017-07-12T15:00:52.932Z,1956
2017-07-12T15:02:01.788Z,1996
2017-07-12T15:03:10.699Z,2300
2017-07-12T15:04:19.901Z,1852
2017-07-12T15:05:29.113Z,1404
2017-07-12T15:06:37.986Z,1288
2017-07-12T15:07:46.850Z,1312
2017-07-12T15:08:55.870Z,1196
2017-07-12T15:10:04.730Z,1196
2017-07-12T15:11:13.587Z,1436
2017-07-12T15:12:22.445Z,1804
2017-07-12T15:13:31.300Z,1796
2017-07-12T15:14:40.458Z,1972
2017-07-12T15:15:49.317Z,1812
2017-07-12T15:16:58.172Z,1924
2017-07-12T15:18:07.026Z,1800
2017-07-12T15:19:15.885Z,1196
2017-07-12T15:20:24.741Z,1456
2017-07-12T15:21:33.601Z,1496
2017-07-12T15:22:42.458Z,1516
2017-07-12T15:23:51.314Z,1948
2017-07-12T15:25:00.172Z,2112
2017-07-12T15:26:09.033Z,1676
2017-07-12T15:27:17.891Z,1284
2017-07-12T15:28:26.749Z,1316
2017-07-12T15:29:35.604Z,1260
2017-07-12T15:30:44.459Z,1268
2017-07-12T15:31:53.342Z,1176
2017-07-12T15:33:02.198Z,1260
2017-07-12T15:34:11.052Z,1528
2017-07-12T15:35:19.910Z,1928
2017-07-12T15:36:28.768Z,2968
2017-07-12T15:37:37.624Z,2812
2017-07-12T15:38:46.480Z,3200
2017-07-12T15:39:55.335Z,3180
2017-07-12T15:41:04.530Z,3220
2017-07-12T15:42:13.387Z,3604
2017-07-12T15:43:22.546Z,3084
2017-07-12T15:44:31.401Z,3576
2017-07-12T15:45:40.258Z,3440
2017-07-12T15:46:49.115Z,2992
2017-07-12T15:47:57.970Z,2540
2017-07-12T15:49:07.126Z,2156
2017-07-12T15:50:15.985Z,1664
2017-07-12T15:51:24.838Z,1696
2017-07-12T15:52:33.694Z,1860